createdAt,value
2019-04-22T20:41:24.710Z,0.00
2019-04-22T20:43:44.772Z,0.00
2019-04-22T20:44:35.242Z,0.00
2019-04-22T20:45:37.777Z,0.00
2019-04-22T20:46:33.009Z,0.00
2019-04-22T20:47:32.303Z,0.00
2019-04-22T20:48:40.770Z,0.00
2019-04-22T20:49:35.525Z,0.00
2019-04-22T20:51:12.466Z,0.00
2019-04-22T20:52:22.328Z,0.00
2019-04-22T20:53:18.727Z,0.00
2019-04-22T20:54:12.206Z,0.00
2019-04-22T20:55:07.684Z,0.00
2019-04-22T20:56:14.758Z,0.00
2019-04-22T20:57:10.893Z,0.00
2019-04-22T20:58:15.315Z,0.00
2019-04-22T20:59:14.569Z,0.00
2019-04-22T21:00:11.521Z,0.00
2019-04-22T21:01:06.459Z,0.00
2019-04-22T21:02:11.495Z,0.00
2019-04-22T21:03:06.496Z,0.00
2019-04-22T21:04:02.858Z,0.00
2019-04-22T21:05:03.260Z,0.00
2019-04-22T21:06:14.964Z,0.00
2019-04-22T21:07:47.961Z,0.00
2019-04-22T21:09:00.895Z,0.00
2019-04-22T21:09:58.023Z,0.00
2019-04-22T21:10:52.020Z,0.00
2019-04-22T21:11:59.830Z,0.00
2019-04-22T21:13:00.253Z,0.00
2019-04-22T21:14:01.346Z,0.00
2019-04-22T21:15:06.535Z,0.00
2019-04-22T21:16:10.835Z,0.00
2019-04-22T21:17:06.723Z,0.00
2019-04-22T21:18:02.611Z,0.00
2019-04-22T21:19:10.018Z,0.00
2019-04-22T21:20:14.353Z,0.00
2019-04-22T21:21:02.319Z,0.00
2019-04-22T21:22:19.396Z,0.00
2019-04-22T21:23:10.057Z,0.00
2019-04-22T21:24:09.238Z,0.00
2019-04-22T21:25:08.830Z,0.00
2019-04-22T21:26:16.693Z,0.00
2019-04-22T21:27:25.477Z,0.00
2019-04-22T21:28:18.114Z,0.00
2019-04-22T21:29:34.719Z,0.00
2019-04-22T21:30:37.249Z,0.00
2019-04-22T21:31:33.749Z,0.00
2019-04-22T21:32:34.290Z,0.00
2019-04-22T21:33:26.923Z,0.00
2019-04-22T21:34:41.330Z,0.00
2019-04-22T21:44:21.261Z,456.00
2019-04-22T21:45:15.165Z,456.00
2019-04-22T21:46:27.899Z,456.00
2019-04-22T21:47:30.443Z,456.00
2019-04-22T21:48:31.322Z,456.00
2019-04-22T21:49:25.105Z,456.00
2019-04-22T21:52:01.535Z,35.70
2019-04-22T21:53:01.231Z,35.70
2019-04-22T21:58:05.165Z,35.40
2019-04-22T21:58:57.102Z,35.30
2019-04-22T21:59:59.728Z,35.10
2019-04-22T22:01:09.146Z,35.40
2019-04-22T22:01:56.904Z,35.70
2019-04-22T22:03:30.853Z,36.90
2019-04-22T22:06:02.960Z,35.90
2019-04-22T22:07:12.955Z,35.30
2019-04-22T22:08:35.159Z,35.40
2019-04-22T22:09:31.253Z,36.00
2019-04-22T22:10:34.360Z,35.60
2019-04-22T22:11:49.488Z,35.40
2019-04-22T22:13:16.988Z,35.70
2019-04-22T22:14:22.884Z,35.70
2019-04-22T22:15:24.759Z,35.60
2019-04-22T22:16:53.105Z,35.90
2019-04-22T22:18:12.243Z,35.80
2019-04-22T22:20:43.617Z,35.70
2019-04-22T22:22:52.371Z,36.10
2019-04-22T22:26:50.846Z,35.80
2019-04-22T22:27:44.793Z,35.80
2019-04-22T22:29:49.300Z,38.40
2019-04-22T22:30:48.388Z,38.40
2019-04-22T22:31:56.339Z,38.40
2019-04-22T22:33:28.580Z,35.10
2019-04-22T22:34:29.625Z,35.50
2019-04-22T22:35:35.997Z,35.70
2019-04-22T22:36:33.558Z,35.90
2019-04-22T22:37:28.386Z,36.20
2019-04-22T22:38:35.200Z,36.40
2019-04-22T22:39:36.654Z,37.00
2019-04-22T22:40:28.577Z,36.60
2019-04-22T22:41:29.870Z,36.60
2019-04-22T22:42:38.185Z,38.10
2019-04-22T22:43:38.796Z,36.70
2019-04-22T22:44:40.427Z,36.80
2019-04-22T22:45:47.282Z,37.30
2019-04-22T22:46:59.040Z,36.90
2019-04-22T22:49:33.377Z,36.90
2019-04-22T22:50:34.715Z,37.10
2019-04-22T22:51:43.035Z,37.00
2019-04-22T22:53:29.185Z,37.10
2019-04-22T22:54:23.966Z,37.00
2019-04-22T22:55:22.992Z,37.00
2019-04-22T22:56:34.128Z,37.10
2019-04-22T22:57:35.180Z,37.10
2019-04-22T22:58:34.810Z,37.10
2019-04-22T22:59:36.190Z,36.90
2019-04-22T23:00:32.215Z,36.90
2019-04-22T23:01:40.757Z,37.00
2019-04-22T23:02:47.233Z,37.00
2019-04-22T23:03:51.789Z,37.10
2019-04-22T23:04:45.480Z,37.00
2019-04-22T23:05:50.458Z,37.00
2019-04-22T23:06:53.359Z,37.10
2019-04-22T23:07:57.209Z,37.20
2019-04-22T23:09:02.418Z,37.20
2019-04-22T23:09:53.801Z,37.30
2019-04-22T23:11:05.597Z,37.30
